sensor_id;sensor_type;location;lat;lon;timestamp;temperature;humidity
42227;DHT22;27892;52.378;13.122;2022-07-04T00:00:48;25.20;52.10
42227;DHT22;27892;52.378;13.122;2022-07-04T00:03:14;25.20;52.40
42227;DHT22;27892;52.378;13.122;2022-07-04T00:05:40;25.10;52.40
42227;DHT22;27892;52.378;13.122;2022-07-04T00:08:05;25.10;52.50
42227;DHT22;27892;52.378;13.122;2022-07-04T00:10:31;25.00;52.70
42227;DHT22;27892;52.378;13.122;2022-07-04T00:12:57;25.00;52.90
42227;DHT22;27892;52.378;13.122;2022-07-04T00:15:22;25.00;52.90
42227;DHT22;27892;52.378;13.122;2022-07-04T00:17:49;25.00;52.90
42227;DHT22;27892;52.378;13.122;2022-07-04T00:20:15;25.00;52.90
42227;DHT22;27892;52.378;13.122;2022-07-04T00:22:41;24.90;53.00
42227;DHT22;27892;52.378;13.122;2022-07-04T00:25:07;24.90;53.20
42227;DHT22;27892;52.378;13.122;2022-07-04T00:27:34;24.90;53.50
42227;DHT22;27892;52.378;13.122;2022-07-04T00:29:59;24.80;53.60
42227;DHT22;27892;52.378;13.122;2022-07-04T00:32:25;24.70;53.70
42227;DHT22;27892;52.378;13.122;2022-07-04T00:34:50;24.70;53.90
42227;DHT22;27892;52.378;13.122;2022-07-04T00:37:16;24.60;54.00
42227;DHT22;27892;52.378;13.122;2022-07-04T00:39:42;24.60;54.40
42227;DHT22;27892;52.378;13.122;2022-07-04T00:42:08;24.50;54.40
42227;DHT22;27892;52.378;13.122;2022-07-04T00:44:34;24.50;54.80
42227;DHT22;27892;52.378;13.122;2022-07-04T00:47:03;24.50;55.10
42227;DHT22;27892;52.378;13.122;2022-07-04T00:49:29;24.40;55.20
42227;DHT22;27892;52.378;13.122;2022-07-04T00:51:55;24.40;55.70
42227;DHT22;27892;52.378;13.122;2022-07-04T00:54:25;24.30;55.70
42227;DHT22;27892;52.378;13.122;2022-07-04T00:56:52;24.30;56.00
42227;DHT22;27892;52.378;13.122;2022-07-04T00:59:18;24.20;56.20
42227;DHT22;27892;52.378;13.122;2022-07-04T01:01:44;24.20;56.50
42227;DHT22;27892;52.378;13.122;2022-07-04T01:04:09;24.10;56.70
42227;DHT22;27892;52.378;13.122;2022-07-04T01:06:35;24.00;56.90
42227;DHT22;27892;52.378;13.122;2022-07-04T01:09:01;23.90;57.30
42227;DHT22;27892;52.378;13.122;2022-07-04T01:11:26;23.90;57.80
42227;DHT22;27892;52.378;13.122;2022-07-04T01:13:56;23.90;58.10
42227;DHT22;27892;52.378;13.122;2022-07-04T01:16:22;23.80;58.30
42227;DHT22;27892;52.378;13.122;2022-07-04T01:18:49;23.90;58.50
42227;DHT22;27892;52.378;13.122;2022-07-04T01:21:17;23.80;58.70
42227;DHT22;27892;52.378;13.122;2022-07-04T01:23:43;23.70;58.90
42227;DHT22;27892;52.378;13.122;2022-07-04T01:26:09;23.60;59.30
42227;DHT22;27892;52.378;13.122;2022-07-04T01:28:35;23.60;59.80
42227;DHT22;27892;52.378;13.122;2022-07-04T01:31:00;23.50;59.80
42227;DHT22;27892;52.378;13.122;2022-07-04T01:33:26;23.50;60.00
42227;DHT22;27892;52.378;13.122;2022-07-04T01:35:52;23.50;60.10
42227;DHT22;27892;52.378;13.122;2022-07-04T01:38:18;23.50;60.10
42227;DHT22;27892;52.378;13.122;2022-07-04T01:40:44;23.40;60.40
42227;DHT22;27892;52.378;13.122;2022-07-04T01:43:09;23.40;60.80
42227;DHT22;27892;52.378;13.122;2022-07-04T01:45:35;23.30;61.10
42227;DHT22;27892;52.378;13.122;2022-07-04T01:48:10;23.30;61.70
42227;DHT22;27892;52.378;13.122;2022-07-04T01:50:36;23.20;61.90
42227;DHT22;27892;52.378;13.122;2022-07-04T01:53:02;23.20;62.30
42227;DHT22;27892;52.378;13.122;2022-07-04T01:55:29;23.20;62.70
42227;DHT22;27892;52.378;13.122;2022-07-04T01:57:55;23.10;62.80
42227;DHT22;27892;52.378;13.122;2022-07-04T02:00:21;23.00;63.30
42227;DHT22;27892;52.378;13.122;2022-07-04T02:03:05;23.00;63.70
42227;DHT22;27892;52.378;13.122;2022-07-04T02:05:31;22.90;63.80
42227;DHT22;27892;52.378;13.122;2022-07-04T02:07:57;22.90;64.30
42227;DHT22;27892;52.378;13.122;2022-07-04T02:10:22;22.90;64.60
42227;DHT22;27892;52.378;13.122;2022-07-04T02:12:48;22.80;64.90
42227;DHT22;27892;52.378;13.122;2022-07-04T02:15:33;22.80;65.10
42227;DHT22;27892;52.378;13.122;2022-07-04T02:18:00;22.80;65.30
42227;DHT22;27892;52.378;13.122;2022-07-04T02:20:26;22.70;65.50
42227;DHT22;27892;52.378;13.122;2022-07-04T02:22:53;22.70;65.70
42227;DHT22;27892;52.378;13.122;2022-07-04T02:25:19;22.70;65.70
42227;DHT22;27892;52.378;13.122;2022-07-04T02:27:44;22.70;65.90
42227;DHT22;27892;52.378;13.122;2022-07-04T02:30:10;22.70;66.00
42227;DHT22;27892;52.378;13.122;2022-07-04T02:32:36;22.60;66.10
42227;DHT22;27892;52.378;13.122;2022-07-04T02:35:21;22.60;66.40
42227;DHT22;27892;52.378;13.122;2022-07-04T02:38:06;22.60;66.70
42227;DHT22;27892;52.378;13.122;2022-07-04T02:40:50;22.50;66.80
42227;DHT22;27892;52.378;13.122;2022-07-04T02:43:34;22.50;66.90
42227;DHT22;27892;52.378;13.122;2022-07-04T02:46:19;22.50;67.00
42227;DHT22;27892;52.378;13.122;2022-07-04T02:49:03;22.50;67.00
42227;DHT22;27892;52.378;13.122;2022-07-04T02:51:47;22.50;66.90
42227;DHT22;27892;52.378;13.122;2022-07-04T02:54:32;22.60;67.00
42227;DHT22;27892;52.378;13.122;2022-07-04T02:57:16;22.50;66.50
42227;DHT22;27892;52.378;13.122;2022-07-04T03:00:02;22.50;66.90
42227;DHT22;27892;52.378;13.122;2022-07-04T03:02:46;22.50;67.00
42227;DHT22;27892;52.378;13.122;2022-07-04T03:05:30;22.40;67.40
42227;DHT22;27892;52.378;13.122;2022-07-04T03:08:16;22.30;67.50
42227;DHT22;27892;52.378;13.122;2022-07-04T03:11:00;22.30;67.90
42227;DHT22;27892;52.378;13.122;2022-07-04T03:13:45;22.30;68.00
42227;DHT22;27892;52.378;13.122;2022-07-04T03:16:29;22.30;68.20
42227;DHT22;27892;52.378;13.122;2022-07-04T03:19:14;22.30;68.40
42227;DHT22;27892;52.378;13.122;2022-07-04T03:21:58;22.20;68.40
42227;DHT22;27892;52.378;13.122;2022-07-04T03:24:42;22.30;68.40
42227;DHT22;27892;52.378;13.122;2022-07-04T03:27:07;22.30;68.40
42227;DHT22;27892;52.378;13.122;2022-07-04T03:29:33;22.30;68.40
42227;DHT22;27892;52.378;13.122;2022-07-04T03:31:59;22.30;68.10
42227;DHT22;27892;52.378;13.122;2022-07-04T03:34:25;22.30;69.00
42227;DHT22;27892;52.378;13.122;2022-07-04T03:36:50;22.30;68.30
42227;DHT22;27892;52.378;13.122;2022-07-04T03:39:16;22.30;68.20
42227;DHT22;27892;52.378;13.122;2022-07-04T03:41:41;22.30;68.60
42227;DHT22;27892;52.378;13.122;2022-07-04T03:44:07;22.20;68.60
42227;DHT22;27892;52.378;13.122;2022-07-04T03:46:33;22.30;68.60
42227;DHT22;27892;52.378;13.122;2022-07-04T03:48:58;22.20;68.70
42227;DHT22;27892;52.378;13.122;2022-07-04T03:51:24;22.20;68.70
42227;DHT22;27892;52.378;13.122;2022-07-04T03:53:50;22.20;68.80
42227;DHT22;27892;52.378;13.122;2022-07-04T03:56:16;22.20;68.80
42227;DHT22;27892;52.378;13.122;2022-07-04T03:58:41;22.20;68.90
42227;DHT22;27892;52.378;13.122;2022-07-04T04:01:17;22.30;69.00
42227;DHT22;27892;52.378;13.122;2022-07-04T04:03:43;22.30;69.00
42227;DHT22;27892;52.378;13.122;2022-07-04T04:06:29;22.30;69.00
42227;DHT22;27892;52.378;13.122;2022-07-04T04:08:54;22.30;68.90
42227;DHT22;27892;52.378;13.122;2022-07-04T04:11:20;22.30;69.00
42227;DHT22;27892;52.378;13.122;2022-07-04T04:13:46;22.30;68.80
42227;DHT22;27892;52.378;13.122;2022-07-04T04:16:11;22.30;68.60
42227;DHT22;27892;52.378;13.122;2022-07-04T04:18:37;22.30;68.60
42227;DHT22;27892;52.378;13.122;2022-07-04T04:21:03;22.30;68.70
42227;DHT22;27892;52.378;13.122;2022-07-04T04:23:29;22.30;68.60
42227;DHT22;27892;52.378;13.122;2022-07-04T04:25:55;22.40;68.60
42227;DHT22;27892;52.378;13.122;2022-07-04T04:28:21;22.40;68.50
42227;DHT22;27892;52.378;13.122;2022-07-04T04:30:47;22.50;68.30
42227;DHT22;27892;52.378;13.122;2022-07-04T04:33:13;22.50;68.00
42227;DHT22;27892;52.378;13.122;2022-07-04T04:35:38;22.50;67.70
42227;DHT22;27892;52.378;13.122;2022-07-04T04:38:04;22.50;68.30
42227;DHT22;27892;52.378;13.122;2022-07-04T04:40:30;22.50;67.40
42227;DHT22;27892;52.378;13.122;2022-07-04T04:42:55;22.60;67.40
42227;DHT22;27892;52.378;13.122;2022-07-04T04:45:21;22.70;67.00
42227;DHT22;27892;52.378;13.122;2022-07-04T04:47:47;22.70;67.20
42227;DHT22;27892;52.378;13.122;2022-07-04T04:50:13;22.70;66.50
42227;DHT22;27892;52.378;13.122;2022-07-04T04:52:41;22.80;66.40
42227;DHT22;27892;52.378;13.122;2022-07-04T04:55:10;22.80;66.50
42227;DHT22;27892;52.378;13.122;2022-07-04T04:57:36;22.80;66.10
42227;DHT22;27892;52.378;13.122;2022-07-04T05:00:03;22.80;66.10
42227;DHT22;27892;52.378;13.122;2022-07-04T05:02:30;22.90;66.00
42227;DHT22;27892;52.378;13.122;2022-07-04T05:04:56;23.10;66.00
42227;DHT22;27892;52.378;13.122;2022-07-04T05:07:21;23.20;65.50
42227;DHT22;27892;52.378;13.122;2022-07-04T05:09:47;23.40;65.10
42227;DHT22;27892;52.378;13.122;2022-07-04T05:12:13;23.50;64.30
42227;DHT22;27892;52.378;13.122;2022-07-04T05:14:38;23.60;64.00
42227;DHT22;27892;52.378;13.122;2022-07-04T05:17:04;23.70;63.10
42227;DHT22;27892;52.378;13.122;2022-07-04T05:19:30;23.70;63.00
42227;DHT22;27892;52.378;13.122;2022-07-04T05:21:55;23.70;62.50
42227;DHT22;27892;52.378;13.122;2022-07-04T05:24:21;23.60;62.00
42227;DHT22;27892;52.378;13.122;2022-07-04T05:26:47;23.60;62.10
42227;DHT22;27892;52.378;13.122;2022-07-04T05:29:12;23.50;62.00
42227;DHT22;27892;52.378;13.122;2022-07-04T05:31:38;23.50;62.10
42227;DHT22;27892;52.378;13.122;2022-07-04T05:34:04;23.50;61.40
42227;DHT22;27892;52.378;13.122;2022-07-04T05:36:30;23.60;61.00
42227;DHT22;27892;52.378;13.122;2022-07-04T05:38:57;23.80;61.10
42227;DHT22;27892;52.378;13.122;2022-07-04T05:41:22;23.90;60.00
42227;DHT22;27892;52.378;13.122;2022-07-04T05:43:48;23.90;59.60
42227;DHT22;27892;52.378;13.122;2022-07-04T05:46:14;23.90;59.50
42227;DHT22;27892;52.378;13.122;2022-07-04T05:48:40;24.00;59.20
42227;DHT22;27892;52.378;13.122;2022-07-04T05:51:06;24.10;59.00
42227;DHT22;27892;52.378;13.122;2022-07-04T05:53:33;24.10;58.60
42227;DHT22;27892;52.378;13.122;2022-07-04T05:55:58;24.30;58.60
42227;DHT22;27892;52.378;13.122;2022-07-04T05:58:24;24.40;58.10
42227;DHT22;27892;52.378;13.122;2022-07-04T06:00:50;24.60;58.00
42227;DHT22;27892;52.378;13.122;2022-07-04T06:03:15;25.00;57.50
42227;DHT22;27892;52.378;13.122;2022-07-04T06:05:41;25.30;56.40
42227;DHT22;27892;52.378;13.122;2022-07-04T06:08:06;25.60;55.50
42227;DHT22;27892;52.378;13.122;2022-07-04T06:10:32;25.80;54.00
42227;DHT22;27892;52.378;13.122;2022-07-04T06:12:59;26.20;53.30
42227;DHT22;27892;52.378;13.122;2022-07-04T06:15:24;27.60;51.60
42227;DHT22;27892;52.378;13.122;2022-07-04T06:17:50;29.40;46.80
42227;DHT22;27892;52.378;13.122;2022-07-04T06:20:16;30.70;45.10
42227;DHT22;27892;52.378;13.122;2022-07-04T06:22:47;31.70;41.70
42227;DHT22;27892;52.378;13.122;2022-07-04T06:25:18;32.30;39.70
42227;DHT22;27892;52.378;13.122;2022-07-04T06:27:46;33.00;38.90
42227;DHT22;27892;52.378;13.122;2022-07-04T06:30:12;33.60;37.20
42227;DHT22;27892;52.378;13.122;2022-07-04T06:32:49;34.20;35.70
42227;DHT22;27892;52.378;13.122;2022-07-04T06:35:20;34.90;34.80
42227;DHT22;27892;52.378;13.122;2022-07-04T06:38:04;35.30;33.70
42227;DHT22;27892;52.378;13.122;2022-07-04T06:40:30;35.10;33.70
42227;DHT22;27892;52.378;13.122;2022-07-04T06:42:56;35.60;32.90
42227;DHT22;27892;52.378;13.122;2022-07-04T06:45:21;35.80;31.90
42227;DHT22;27892;52.378;13.122;2022-07-04T06:47:47;36.30;31.20
42227;DHT22;27892;52.378;13.122;2022-07-04T06:50:12;36.70;30.90
42227;DHT22;27892;52.378;13.122;2022-07-04T06:52:38;36.80;30.70
42227;DHT22;27892;52.378;13.122;2022-07-04T06:55:05;37.00;30.20
42227;DHT22;27892;52.378;13.122;2022-07-04T06:57:31;36.90;30.40
42227;DHT22;27892;52.378;13.122;2022-07-04T06:59:57;37.50;30.00
42227;DHT22;27892;52.378;13.122;2022-07-04T07:02:23;37.80;29.30
42227;DHT22;27892;52.378;13.122;2022-07-04T07:04:48;38.20;28.50
42227;DHT22;27892;52.378;13.122;2022-07-04T07:07:14;38.60;28.80
42227;DHT22;27892;52.378;13.122;2022-07-04T07:09:40;39.20;27.90
42227;DHT22;27892;52.378;13.122;2022-07-04T07:12:05;39.40;28.00
42227;DHT22;27892;52.378;13.122;2022-07-04T07:14:31;39.80;27.20
42227;DHT22;27892;52.378;13.122;2022-07-04T07:16:57;40.00;26.80
42227;DHT22;27892;52.378;13.122;2022-07-04T07:19:22;39.50;26.50
42227;DHT22;27892;52.378;13.122;2022-07-04T07:21:48;39.30;26.90
42227;DHT22;27892;52.378;13.122;2022-07-04T07:24:13;39.00;26.90
42227;DHT22;27892;52.378;13.122;2022-07-04T07:26:39;37.60;27.50
42227;DHT22;27892;52.378;13.122;2022-07-04T07:29:05;35.70;28.80
42227;DHT22;27892;52.378;13.122;2022-07-04T07:31:31;34.00;31.00
42227;DHT22;27892;52.378;13.122;2022-07-04T07:33:57;32.60;33.00
42227;DHT22;27892;52.378;13.122;2022-07-04T07:36:22;31.70;34.60
42227;DHT22;27892;52.378;13.122;2022-07-04T07:38:48;30.70;35.60
42227;DHT22;27892;52.378;13.122;2022-07-04T07:41:17;30.00;37.70
42227;DHT22;27892;52.378;13.122;2022-07-04T07:43:42;29.30;38.50
42227;DHT22;27892;52.378;13.122;2022-07-04T07:46:08;28.80;40.10
42227;DHT22;27892;52.378;13.122;2022-07-04T07:48:34;28.40;41.00
42227;DHT22;27892;52.378;13.122;2022-07-04T07:51:00;28.10;40.90
42227;DHT22;27892;52.378;13.122;2022-07-04T07:53:26;27.80;41.90
42227;DHT22;27892;52.378;13.122;2022-07-04T07:55:51;27.50;42.50
42227;DHT22;27892;52.378;13.122;2022-07-04T07:58:17;27.30;43.20
42227;DHT22;27892;52.378;13.122;2022-07-04T08:00:45;27.10;43.80
42227;DHT22;27892;52.378;13.122;2022-07-04T08:03:11;26.90;42.20
42227;DHT22;27892;52.378;13.122;2022-07-04T08:05:55;26.80;42.10
42227;DHT22;27892;52.378;13.122;2022-07-04T08:08:21;26.90;43.50
42227;DHT22;27892;52.378;13.122;2022-07-04T08:10:49;27.70;43.80
42227;DHT22;27892;52.378;13.122;2022-07-04T08:13:15;28.80;42.10
42227;DHT22;27892;52.378;13.122;2022-07-04T08:15:41;29.50;41.20
42227;DHT22;27892;52.378;13.122;2022-07-04T08:18:06;30.10;39.40
42227;DHT22;27892;52.378;13.122;2022-07-04T08:20:32;30.30;38.90
42227;DHT22;27892;52.378;13.122;2022-07-04T08:22:58;30.70;38.40
42227;DHT22;27892;52.378;13.122;2022-07-04T08:25:23;30.80;37.90
42227;DHT22;27892;52.378;13.122;2022-07-04T08:27:49;30.40;37.80
42227;DHT22;27892;52.378;13.122;2022-07-04T08:30:15;30.10;39.20
42227;DHT22;27892;52.378;13.122;2022-07-04T08:32:40;30.40;39.10
42227;DHT22;27892;52.378;13.122;2022-07-04T08:35:06;30.50;37.90
42227;DHT22;27892;52.378;13.122;2022-07-04T08:37:32;30.50;38.30
42227;DHT22;27892;52.378;13.122;2022-07-04T08:39:58;30.80;37.20
42227;DHT22;27892;52.378;13.122;2022-07-04T08:42:24;31.10;36.70
42227;DHT22;27892;52.378;13.122;2022-07-04T08:44:51;31.10;37.50
42227;DHT22;27892;52.378;13.122;2022-07-04T08:47:19;31.10;37.30
42227;DHT22;27892;52.378;13.122;2022-07-04T08:49:52;31.10;36.90
42227;DHT22;27892;52.378;13.122;2022-07-04T08:52:43;31.20;37.60
42227;DHT22;27892;52.378;13.122;2022-07-04T08:55:13;31.30;36.90
42227;DHT22;27892;52.378;13.122;2022-07-04T08:57:58;31.10;36.90
42227;DHT22;27892;52.378;13.122;2022-07-04T09:00:42;31.10;37.20
42227;DHT22;27892;52.378;13.122;2022-07-04T09:03:09;31.30;36.70
42227;DHT22;27892;52.378;13.122;2022-07-04T09:05:35;31.50;36.50
42227;DHT22;27892;52.378;13.122;2022-07-04T09:08:02;31.50;35.60
42227;DHT22;27892;52.378;13.122;2022-07-04T09:10:29;31.50;35.70
42227;DHT22;27892;52.378;13.122;2022-07-04T09:12:56;31.60;35.40
42227;DHT22;27892;52.378;13.122;2022-07-04T09:15:21;31.60;35.20
42227;DHT22;27892;52.378;13.122;2022-07-04T09:17:47;31.60;34.30
42227;DHT22;27892;52.378;13.122;2022-07-04T09:20:18;31.60;33.70
42227;DHT22;27892;52.378;13.122;2022-07-04T09:22:46;31.40;34.70
42227;DHT22;27892;52.378;13.122;2022-07-04T09:25:13;31.30;35.10
42227;DHT22;27892;52.378;13.122;2022-07-04T09:27:44;31.40;35.50
42227;DHT22;27892;52.378;13.122;2022-07-04T09:30:11;31.50;34.90
42227;DHT22;27892;52.378;13.122;2022-07-04T09:32:43;31.30;35.00
42227;DHT22;27892;52.378;13.122;2022-07-04T09:35:22;31.10;35.40
42227;DHT22;27892;52.378;13.122;2022-07-04T09:37:49;30.70;35.80
42227;DHT22;27892;52.378;13.122;2022-07-04T09:40:27;30.30;35.30
42227;DHT22;27892;52.378;13.122;2022-07-04T09:42:54;30.00;35.80
42227;DHT22;27892;52.378;13.122;2022-07-04T09:45:20;29.80;37.10
42227;DHT22;27892;52.378;13.122;2022-07-04T09:47:49;29.70;37.30
42227;DHT22;27892;52.378;13.122;2022-07-04T09:50:20;30.10;37.30
42227;DHT22;27892;52.378;13.122;2022-07-04T09:52:47;30.40;36.80
42227;DHT22;27892;52.378;13.122;2022-07-04T09:55:40;30.40;36.60
42227;DHT22;27892;52.378;13.122;2022-07-04T09:58:10;30.10;35.40
42227;DHT22;27892;52.378;13.122;2022-07-04T10:00:36;29.80;34.50
42227;DHT22;27892;52.378;13.122;2022-07-04T10:03:22;29.70;34.30
42227;DHT22;27892;52.378;13.122;2022-07-04T10:08:26;30.50;37.00
42227;DHT22;27892;52.378;13.122;2022-07-04T10:10:57;31.00;37.20
42227;DHT22;27892;52.378;13.122;2022-07-04T10:13:23;31.40;35.40
42227;DHT22;27892;52.378;13.122;2022-07-04T10:15:49;31.10;33.80
42227;DHT22;27892;52.378;13.122;2022-07-04T10:18:18;30.80;34.70
42227;DHT22;27892;52.378;13.122;2022-07-04T10:20:44;31.00;35.80
42227;DHT22;27892;52.378;13.122;2022-07-04T10:23:10;31.60;34.30
42227;DHT22;27892;52.378;13.122;2022-07-04T10:25:36;31.80;33.80
42227;DHT22;27892;52.378;13.122;2022-07-04T10:28:02;31.60;33.50
42227;DHT22;27892;52.378;13.122;2022-07-04T10:30:30;31.30;33.50
42227;DHT22;27892;52.378;13.122;2022-07-04T10:32:59;30.90;34.10
42227;DHT22;27892;52.378;13.122;2022-07-04T10:38:33;30.60;35.50
42227;DHT22;27892;52.378;13.122;2022-07-04T10:41:03;30.80;35.90
42227;DHT22;27892;52.378;13.122;2022-07-04T10:49:00;31.30;35.80
42227;DHT22;27892;52.378;13.122;2022-07-04T10:51:40;31.80;35.00
42227;DHT22;27892;52.378;13.122;2022-07-04T10:54:28;32.50;34.70
42227;DHT22;27892;52.378;13.122;2022-07-04T10:56:57;33.10;33.00
42227;DHT22;27892;52.378;13.122;2022-07-04T10:59:26;33.30;31.60
42227;DHT22;27892;52.378;13.122;2022-07-04T11:05:00;33.50;32.00
42227;DHT22;27892;52.378;13.122;2022-07-04T11:17:59;34.30;31.00
42227;DHT22;27892;52.378;13.122;2022-07-04T11:20:27;34.40;29.90
42227;DHT22;27892;52.378;13.122;2022-07-04T11:25:50;33.50;31.60
42227;DHT22;27892;52.378;13.122;2022-07-04T11:28:24;33.60;31.40
42227;DHT22;27892;52.378;13.122;2022-07-04T11:30:56;33.90;30.70
42227;DHT22;27892;52.378;13.122;2022-07-04T11:33:24;33.80;30.10
42227;DHT22;27892;52.378;13.122;2022-07-04T11:36:08;33.80;29.50
42227;DHT22;27892;52.378;13.122;2022-07-04T11:41:11;33.80;30.10
42227;DHT22;27892;52.378;13.122;2022-07-04T11:43:56;33.90;30.00
42227;DHT22;27892;52.378;13.122;2022-07-04T11:46:40;34.10;30.90
42227;DHT22;27892;52.378;13.122;2022-07-04T11:49:10;34.30;30.70
42227;DHT22;27892;52.378;13.122;2022-07-04T11:51:43;34.50;31.30
42227;DHT22;27892;52.378;13.122;2022-07-04T11:54:09;34.70;30.00
42227;DHT22;27892;52.378;13.122;2022-07-04T11:56:35;34.60;29.60
42227;DHT22;27892;52.378;13.122;2022-07-04T11:59:11;34.70;29.80
42227;DHT22;27892;52.378;13.122;2022-07-04T12:01:37;34.40;28.10
42227;DHT22;27892;52.378;13.122;2022-07-04T12:04:18;34.20;30.10
42227;DHT22;27892;52.378;13.122;2022-07-04T12:06:48;34.40;30.00
42227;DHT22;27892;52.378;13.122;2022-07-04T12:09:15;34.50;29.20
42227;DHT22;27892;52.378;13.122;2022-07-04T12:11:56;34.70;29.10
42227;DHT22;27892;52.378;13.122;2022-07-04T12:14:23;34.90;29.20
42227;DHT22;27892;52.378;13.122;2022-07-04T12:16:49;35.10;29.10
42227;DHT22;27892;52.378;13.122;2022-07-04T12:19:15;35.10;28.80
42227;DHT22;27892;52.378;13.122;2022-07-04T12:21:44;35.20;29.30
42227;DHT22;27892;52.378;13.122;2022-07-04T12:24:09;35.30;28.20
42227;DHT22;27892;52.378;13.122;2022-07-04T12:26:47;35.20;29.00
42227;DHT22;27892;52.378;13.122;2022-07-04T12:29:23;35.30;29.20
42227;DHT22;27892;52.378;13.122;2022-07-04T12:31:51;35.30;28.80
42227;DHT22;27892;52.378;13.122;2022-07-04T12:34:18;35.30;28.10
42227;DHT22;27892;52.378;13.122;2022-07-04T12:36:55;35.40;28.20
42227;DHT22;27892;52.378;13.122;2022-07-04T12:39:32;35.50;27.70
42227;DHT22;27892;52.378;13.122;2022-07-04T12:42:15;35.40;28.20
42227;DHT22;27892;52.378;13.122;2022-07-04T12:44:42;35.30;26.30
42227;DHT22;27892;52.378;13.122;2022-07-04T12:47:10;35.00;28.40
42227;DHT22;27892;52.378;13.122;2022-07-04T12:49:36;35.10;26.90
42227;DHT22;27892;52.378;13.122;2022-07-04T12:52:09;34.80;26.80
42227;DHT22;27892;52.378;13.122;2022-07-04T12:54:35;34.80;27.40
42227;DHT22;27892;52.378;13.122;2022-07-04T12:57:19;34.80;26.90
42227;DHT22;27892;52.378;13.122;2022-07-04T12:59:44;34.80;26.60
42227;DHT22;27892;52.378;13.122;2022-07-04T13:02:11;34.60;27.40
42227;DHT22;27892;52.378;13.122;2022-07-04T13:04:40;34.50;26.50
42227;DHT22;27892;52.378;13.122;2022-07-04T13:07:15;34.40;27.40
42227;DHT22;27892;52.378;13.122;2022-07-04T13:09:42;34.30;27.40
42227;DHT22;27892;52.378;13.122;2022-07-04T13:12:10;34.40;28.00
42227;DHT22;27892;52.378;13.122;2022-07-04T13:14:56;34.40;27.70
42227;DHT22;27892;52.378;13.122;2022-07-04T13:17:22;34.60;27.10
42227;DHT22;27892;52.378;13.122;2022-07-04T13:19:49;34.20;27.10
42227;DHT22;27892;52.378;13.122;2022-07-04T13:22:18;33.90;27.40
42227;DHT22;27892;52.378;13.122;2022-07-04T13:24:45;33.90;25.90
42227;DHT22;27892;52.378;13.122;2022-07-04T13:27:11;33.60;26.70
42227;DHT22;27892;52.378;13.122;2022-07-04T13:29:36;33.00;27.50
42227;DHT22;27892;52.378;13.122;2022-07-04T13:32:03;32.80;28.40
42227;DHT22;27892;52.378;13.122;2022-07-04T13:34:29;32.40;28.00
42227;DHT22;27892;52.378;13.122;2022-07-04T13:36:54;32.50;29.30
42227;DHT22;27892;52.378;13.122;2022-07-04T13:39:22;32.90;29.40
42227;DHT22;27892;52.378;13.122;2022-07-04T13:41:48;33.20;27.70
42227;DHT22;27892;52.378;13.122;2022-07-04T13:44:14;33.00;27.80
42227;DHT22;27892;52.378;13.122;2022-07-04T13:46:42;33.30;28.00
42227;DHT22;27892;52.378;13.122;2022-07-04T13:49:11;34.00;28.90
42227;DHT22;27892;52.378;13.122;2022-07-04T13:51:38;34.70;28.10
42227;DHT22;27892;52.378;13.122;2022-07-04T13:54:04;35.30;26.10
42227;DHT22;27892;52.378;13.122;2022-07-04T13:56:30;35.80;27.00
42227;DHT22;27892;52.378;13.122;2022-07-04T13:58:56;36.40;26.50
42227;DHT22;27892;52.378;13.122;2022-07-04T14:01:23;36.90;26.20
42227;DHT22;27892;52.378;13.122;2022-07-04T14:03:49;37.40;25.70
42227;DHT22;27892;52.378;13.122;2022-07-04T14:06:17;37.80;24.40
42227;DHT22;27892;52.378;13.122;2022-07-04T14:08:42;37.90;24.20
42227;DHT22;27892;52.378;13.122;2022-07-04T14:11:08;37.90;23.80
42227;DHT22;27892;52.378;13.122;2022-07-04T14:13:34;37.80;23.60
42227;DHT22;27892;52.378;13.122;2022-07-04T14:16:00;37.60;24.00
42227;DHT22;27892;52.378;13.122;2022-07-04T14:18:27;37.20;23.40
42227;DHT22;27892;52.378;13.122;2022-07-04T14:20:52;36.70;24.20
42227;DHT22;27892;52.378;13.122;2022-07-04T14:23:18;36.20;24.80
42227;DHT22;27892;52.378;13.122;2022-07-04T14:26:04;35.70;24.10
42227;DHT22;27892;52.378;13.122;2022-07-04T14:28:31;35.30;24.20
42227;DHT22;27892;52.378;13.122;2022-07-04T14:30:57;34.90;24.20
42227;DHT22;27892;52.378;13.122;2022-07-04T14:33:23;34.70;25.70
42227;DHT22;27892;52.378;13.122;2022-07-04T14:35:48;34.50;25.60
42227;DHT22;27892;52.378;13.122;2022-07-04T14:38:18;34.30;25.90
42227;DHT22;27892;52.378;13.122;2022-07-04T14:40:44;34.10;25.80
42227;DHT22;27892;52.378;13.122;2022-07-04T14:43:15;33.60;26.10
42227;DHT22;27892;52.378;13.122;2022-07-04T14:45:49;33.20;26.80
42227;DHT22;27892;52.378;13.122;2022-07-04T14:48:15;32.90;27.10
42227;DHT22;27892;52.378;13.122;2022-07-04T14:50:42;32.80;27.40
42227;DHT22;27892;52.378;13.122;2022-07-04T14:53:08;32.90;27.30
42227;DHT22;27892;52.378;13.122;2022-07-04T14:55:34;32.70;26.20
42227;DHT22;27892;52.378;13.122;2022-07-04T14:58:03;32.60;27.50
42227;DHT22;27892;52.378;13.122;2022-07-04T15:00:29;32.50;27.00
42227;DHT22;27892;52.378;13.122;2022-07-04T15:02:55;32.20;26.50
42227;DHT22;27892;52.378;13.122;2022-07-04T15:05:20;32.00;27.30
42227;DHT22;27892;52.378;13.122;2022-07-04T15:07:47;31.80;28.40
42227;DHT22;27892;52.378;13.122;2022-07-04T15:10:12;31.70;28.60
42227;DHT22;27892;52.378;13.122;2022-07-04T15:12:41;31.50;27.80
42227;DHT22;27892;52.378;13.122;2022-07-04T15:15:07;31.40;27.60
42227;DHT22;27892;52.378;13.122;2022-07-04T15:17:33;31.30;28.10
42227;DHT22;27892;52.378;13.122;2022-07-04T15:20:00;31.20;28.10
42227;DHT22;27892;52.378;13.122;2022-07-04T15:23:02;31.10;27.90
42227;DHT22;27892;52.378;13.122;2022-07-04T15:25:46;30.90;27.50
42227;DHT22;27892;52.378;13.122;2022-07-04T15:28:12;30.70;27.60
42227;DHT22;27892;52.378;13.122;2022-07-04T15:30:37;30.50;28.80
42227;DHT22;27892;52.378;13.122;2022-07-04T15:33:03;30.50;29.30
42227;DHT22;27892;52.378;13.122;2022-07-04T15:35:29;30.50;28.40
42227;DHT22;27892;52.378;13.122;2022-07-04T15:37:54;30.50;28.70
42227;DHT22;27892;52.378;13.122;2022-07-04T15:40:20;30.50;28.50
42227;DHT22;27892;52.378;13.122;2022-07-04T15:42:46;30.50;28.70
42227;DHT22;27892;52.378;13.122;2022-07-04T15:45:12;30.40;29.00
42227;DHT22;27892;52.378;13.122;2022-07-04T15:47:37;30.20;29.70
42227;DHT22;27892;52.378;13.122;2022-07-04T15:50:05;30.00;30.10
42227;DHT22;27892;52.378;13.122;2022-07-04T15:52:31;29.90;30.70
42227;DHT22;27892;52.378;13.122;2022-07-04T15:54:57;29.80;31.10